Record high temperature 52.3°C Record low temperature -14.8°C Record high gust 66.0 kts Record high average 44.0 kts Record daily rain 221.2 mm Record low windchill -23.5°C Record high barometer 1099.9 hPa Record low barometer 815.2 hPa
Daily high pressure 1022.4 hPa Daily low pressure 1019.3 hPa Daily low windchill 12.7°C Daily high heat index 18.1°C Daily high gust speed 8.4 kts NW Daily high average speed 8.4 kts NW
Potts Point Sydney
LAST READING AT TIME: 19:10 DATE: 30 May 2017, time of next update: 19:20
Current WeatherClear/Clear Current Temperature 14.3°C (57.7°F), Apparent temp 12.7°C
Maximum Temperature (since 9am)18.1°C at: 14:08 Minimum Temperature (since 9am)12.7°C at: 09:01
Average windspeed (ten minute)2.6 kts (4.8 kmh) Wind Direction (ten minute)S (186°)
Windchill Temperature 14.3°C Maximum Gust (last hour)5.8 kts (10.8 kmh) at: 18:56
Maximum Gust (since 9am)8.4 kts (15.5 kmh) at: 12:52 Maximum 1 minute average (since 9am)8.4 kts (15.5 kmh) at: 12:54
Rainfall (last hour)0.0 mm Rainfall (since 9am)0.0 mm (0.00 in.)---
Rainfall This month 17.9 mm (0.71 in.) Rainfall To date this year 556.1 mm (21.89 in.)
Maximum rain per minute (last hour)0.0 mm/min Maximum rain per hour (last 6 hours)0.0 mm/hour
Yesterdays rainfall 0.0 mm DewPoint 5.4°C (Wet Bulb :10.1°C )
Humidity 55 %, Humidex 13.7°C Barometer corrected to msl1021.0 hPa
Pressure change +0.2 hPa (last hour) Trend (last hour)STEADY
Pressure change (last 12 hours)-1.6 hPa Pressure change (last 6 hours)+1.2 hPa
Current Indoor Temp. 23.9°C
Current Indoor Hum. 62%
Current solar 0 W/mē Current UV0.0
Maximum solar (since 9am) 492 W/mē Minimum solar (since 9am)1000 W/mē
Current 04:13 hours of sunshine today, current sky: Clear/Clear
Sunshine hours for the year: 494:58 hrs Sunshine hours for the month: 91:18 hrs
Current evapotranspiration rate 3.5 mm per day. Yesterday's reading 3.0

This page is updated from recent data collected by a WS2310 weather station Use the Reload or Refresh facility on your browser to retrieve the latest data.


Animated web cam image


Weather report/warning/Metars

Sydney Airport, Australia (YSSY) 33-57S 151-11E 3M
May 30, 2017 - 04:30 AM EDT / 2017.05.30 0830 UTC
Wind: from the W (270 degrees) at 18 MPH (16 KT):0
Visibility: greater than 7 mile(s):0
Temperature: 57 F (14 C)
Dew Point: 41 F (5 C)
Relative Humidity: 54%
Pressure (altimeter): 30.15 in. Hg (1021 hPa)
ob: YSSY 300830Z 27016KT CAVOK 14/05 Q1021 NOSIG
cycle: 8
Auckland Airport, New Zealand (NZAA) 37-01S 174-48E 6M
May 30, 2017 - 04:30 AM EDT / 2017.05.30 0830 UTC
Wind: from the NNE (020 degrees) at 7 MPH (6 KT):0
Visibility: greater than 7 mile(s):0
Weather: Towering cumulus clouds observed
Temperature: 57 F (14 C)
Dew Point: 53 F (12 C)
Relative Humidity: 87%
Pressure (altimeter): 29.94 in. Hg (1014 hPa)
ob: NZAA 300830Z AUTO 02006KT 9999 NCD 14/12 Q1014 TEMPO FM0900 5000 RA BKN014 FEW025TCU
cycle: 8